Time;durP1;ratioP1;P1;durP2;ratioP2;P2;SDS_P1;SDS_P2;PMS_P1;PMS_P2;Temp;Humidity;BMP_temperature;BMP_pressure;BME280_temperature;BME280_humidity;BME280_pressure;Samples;Min_cycle;Max_cycle;Signal;HPM_P1;HPM_P2
2021/09/13 00:02:07;;;;;;;0.10;0.10;;;16.30;99.90;;;;;;4970505;28;20191;-81
2021/09/13 00:04:32;;;;;;;0.73;0.50;;;16.30;99.90;;;;;;4965499;28;20553;-81
2021/09/13 00:06:58;;;;;;;0.33;0.33;;;16.30;99.90;;;;;;4967444;28;20223;-81
2021/09/13 00:09:24;;;;;;;0.33;0.33;;;16.20;99.90;;;;;;4966247;28;20196;-81
2021/09/13 00:11:50;;;;;;;0.40;0.40;;;16.00;99.90;;;;;;4969592;28;20192;-81
2021/09/13 00:14:15;;;;;;;0.40;0.40;;;16.10;99.90;;;;;;4971671;28;20199;-81
2021/09/13 00:16:41;;;;;;;0.30;0.30;;;16.00;99.90;;;;;;4964618;28;20192;-81
2021/09/13 00:19:06;;;;;;;0.30;0.30;;;15.90;99.90;;;;;;4968907;28;20212;-81
2021/09/13 00:21:32;;;;;;;0.30;0.30;;;15.90;99.90;;;;;;4969238;28;20650;-81
2021/09/13 00:23:58;;;;;;;0.47;0.40;;;15.50;99.90;;;;;;4972137;28;20184;-81
2021/09/13 00:26:23;;;;;;;1.37;0.40;;;15.40;99.90;;;;;;4968625;28;20197;-81
2021/09/13 00:28:49;;;;;;;0.17;0.17;;;15.30;99.90;;;;;;4957719;28;20184;-81
2021/09/13 00:31:14;;;;;;;0.50;0.50;;;15.40;99.90;;;;;;4969485;28;20188;-81
2021/09/13 00:33:40;;;;;;;0.30;0.30;;;15.40;99.90;;;;;;4957279;28;20184;-81
2021/09/13 00:36:06;;;;;;;0.67;0.50;;;15.30;99.90;;;;;;4958217;28;20236;-81
2021/09/13 00:38:32;;;;;;;0.20;0.20;;;15.10;99.90;;;;;;4969585;28;20660;-81
2021/09/13 00:40:58;;;;;;;0.23;0.23;;;15.00;99.90;;;;;;4967104;28;20243;-82
2021/09/13 00:43:24;;;;;;;0.20;0.20;;;14.90;99.90;;;;;;4961634;28;20195;-81
2021/09/13 00:45:49;;;;;;;0.20;0.20;;;14.70;99.90;;;;;;4969398;28;20218;-81
2021/09/13 00:48:15;;;;;;;0.20;0.20;;;14.70;99.90;;;;;;4967061;28;20276;-81
2021/09/13 00:50:40;;;;;;;0.27;0.27;;;14.80;99.90;;;;;;4966982;28;20219;-81
2021/09/13 00:53:06;;;;;;;0.87;0.47;;;14.70;99.90;;;;;;4971350;28;20192;-81
2021/09/13 00:55:32;;;;;;;0.20;0.20;;;14.80;99.90;;;;;;4971494;28;20198;-81
2021/09/13 00:57:57;;;;;;;0.20;0.20;;;14.90;99.90;;;;;;4976389;28;20189;-81
2021/09/13 01:00:23;;;;;;;0.90;0.20;;;14.90;99.90;;;;;;4970715;28;20213;-82
2021/09/13 01:02:49;;;;;;;0.20;0.20;;;14.90;99.90;;;;;;4962539;28;20271;-81
2021/09/13 01:05:15;;;;;;;0.20;0.20;;;14.90;99.90;;;;;;4970328;28;20223;-81
2021/09/13 01:07:40;;;;;;;0.43;0.43;;;14.80;99.90;;;;;;4977324;28;20211;-81
2021/09/13 01:10:07;;;;;;;0.17;0.17;;;14.60;99.90;;;;;;4975767;28;20203;-81
2021/09/13 01:12:33;;;;;;;0.10;0.10;;;14.50;99.90;;;;;;4975425;28;20289;-81
2021/09/13 01:14:59;;;;;;;0.40;0.40;;;14.30;99.90;;;;;;4967364;28;20545;-81
2021/09/13 01:17:25;;;;;;;0.30;0.30;;;14.20;99.90;;;;;;4971021;28;20250;-81
2021/09/13 01:19:50;;;;;;;0.20;0.20;;;14.10;99.90;;;;;;4975166;28;20219;-81
2021/09/13 01:22:19;;;;;;;0.20;0.17;;;14.10;99.90;;;;;;4974952;28;20272;-81
2021/09/13 01:24:44;;;;;;;0.20;0.20;;;14.20;99.90;;;;;;4969574;28;20182;-81
2021/09/13 01:27:11;;;;;;;0.20;0.20;;;14.40;99.90;;;;;;4974827;28;20216;-81
2021/09/13 01:29:37;;;;;;;0.23;0.20;;;14.40;99.90;;;;;;4968963;28;20201;-82
2021/09/13 01:32:05;;;;;;;0.37;0.30;;;14.30;99.90;;;;;;4975458;28;20196;-81
2021/09/13 01:34:31;;;;;;;0.20;0.20;;;14.30;99.90;;;;;;4969639;28;20183;-81
2021/09/13 01:36:58;;;;;;;0.10;0.10;;;14.30;99.90;;;;;;4967773;28;20604;-81
2021/09/13 01:39:23;;;;;;;0.30;0.20;;;14.30;99.90;;;;;;4972370;28;20285;-81
2021/09/13 01:41:49;;;;;;;1.43;1.33;;;14.40;99.90;;;;;;4974761;28;20193;-80
2021/09/13 01:44:16;;;;;;;0.97;0.87;;;14.50;99.90;;;;;;4972618;28;20200;-81
2021/09/13 01:46:42;;;;;;;0.60;0.60;;;14.50;99.90;;;;;;4975058;28;20223;-81
2021/09/13 01:49:10;;;;;;;0.40;0.40;;;14.50;99.90;;;;;;4973920;28;20275;-81
2021/09/13 01:51:36;;;;;;;0.10;0.10;;;14.60;99.90;;;;;;4971829;28;20563;-81
2021/09/13 01:54:03;;;;;;;0.40;0.40;;;14.60;99.90;;;;;;4976236;28;20190;-81
2021/09/13 01:56:28;;;;;;;0.30;0.30;;;14.30;99.90;;;;;;4976080;28;20248;-81
2021/09/13 01:58:54;;;;;;;0.37;0.37;;;14.40;99.90;;;;;;4974903;28;20560;-82
2021/09/13 02:01:21;;;;;;;0.40;0.40;;;14.40;99.90;;;;;;4970336;28;20604;-82
2021/09/13 02:03:47;;;;;;;0.47;0.47;;;14.50;99.90;;;;;;4973217;28;20185;-81
2021/09/13 02:06:13;;;;;;;0.70;0.20;;;14.20;99.90;;;;;;4965596;28;20649;-81
2021/09/13 02:08:39;;;;;;;0.20;0.20;;;14.20;99.90;;;;;;4971397;28;20232;-81
2021/09/13 02:11:05;;;;;;;0.10;0.10;;;14.30;99.90;;;;;;4974372;28;20215;-81
2021/09/13 02:13:31;;;;;;;0.10;0.10;;;14.20;99.90;;;;;;4963345;28;20185;-81
2021/09/13 02:15:57;;;;;;;0.13;0.10;;;14.30;99.90;;;;;;4968342;28;20241;-81
2021/09/13 02:18:23;;;;;;;1.13;0.33;;;14.30;99.90;;;;;;4970893;28;20611;-81
2021/09/13 02:20:48;;;;;;;0.30;0.30;;;14.40;99.90;;;;;;4959837;28;20233;-82
2021/09/13 02:23:14;;;;;;;0.77;0.20;;;14.60;99.90;;;;;;4965527;28;20199;-81
2021/09/13 02:25:40;;;;;;;0.20;0.20;;;14.70;99.90;;;;;;4972573;28;20833;-81
2021/09/13 02:28:05;;;;;;;0.53;0.53;;;14.70;99.90;;;;;;4970911;28;20688;-81
2021/09/13 02:30:31;;;;;;;0.43;0.43;;;14.70;99.90;;;;;;4969762;28;20215;-81
2021/09/13 02:32:57;;;;;;;0.17;0.17;;;14.60;99.90;;;;;;4960370;28;20241;-82
2021/09/13 02:35:23;;;;;;;0.10;0.10;;;14.60;99.90;;;;;;4973038;28;20591;-81
2021/09/13 02:37:48;;;;;;;0.10;0.10;;;14.70;99.90;;;;;;4973450;28;20271;-81
2021/09/13 02:40:14;;;;;;;0.20;0.20;;;14.60;99.90;;;;;;4967727;28;20275;-81
2021/09/13 02:42:39;;;;;;;0.10;0.10;;;14.60;99.90;;;;;;4962064;28;20213;-81
2021/09/13 02:45:06;;;;;;;0.20;0.20;;;14.60;99.90;;;;;;4973220;28;20575;-81
2021/09/13 02:47:32;;;;;;;0.17;0.17;;;14.60;99.90;;;;;;4973667;28;20312;-81
2021/09/13 02:49:58;;;;;;;0.10;0.10;;;14.60;99.90;;;;;;4969115;28;20685;-81
2021/09/13 02:52:23;;;;;;;0.17;0.17;;;14.70;99.90;;;;;;4964636;28;20189;-81
2021/09/13 02:54:49;;;;;;;1.93;0.37;;;14.70;99.90;;;;;;4971012;28;20178;-81
2021/09/13 02:57:14;;;;;;;1.63;0.43;;;14.70;99.90;;;;;;4973798;28;20217;-81
2021/09/13 02:59:40;;;;;;;0.30;0.30;;;14.60;99.90;;;;;;4972755;28;20675;-81
2021/09/13 03:02:05;;;;;;;0.50;0.40;;;14.40;99.90;;;;;;4965203;28;20257;-81
2021/09/13 03:04:31;;;;;;;0.23;0.23;;;14.40;99.90;;;;;;4964320;28;20193;-81
2021/09/13 03:06:57;;;;;;;0.20;0.20;;;14.40;99.90;;;;;;4971338;28;20212;-81
2021/09/13 03:09:22;;;;;;;0.20;0.20;;;14.40;99.90;;;;;;4966823;28;20237;-82
2021/09/13 03:11:48;;;;;;;0.30;0.30;;;14.30;99.90;;;;;;4968556;28;20626;-82
2021/09/13 03:14:13;;;;;;;0.13;0.13;;;14.30;99.90;;;;;;4967050;28;20551;-81
2021/09/13 03:16:39;;;;;;;0.13;0.13;;;14.40;99.90;;;;;;4967544;28;20186;-81
2021/09/13 03:19:05;;;;;;;0.30;0.30;;;14.30;99.90;;;;;;4972412;28;20216;-81
2021/09/13 03:21:30;;;;;;;0.43;0.43;;;14.30;99.90;;;;;;4968644;28;20182;-81
2021/09/13 03:23:56;;;;;;;0.30;0.30;;;14.20;99.90;;;;;;4963117;28;20189;-81
2021/09/13 03:26:21;;;;;;;0.30;0.17;;;14.20;99.90;;;;;;4972456;28;20182;-82
2021/09/13 03:28:47;;;;;;;0.90;0.20;;;14.20;99.90;;;;;;4966846;28;20212;-82
2021/09/13 03:31:12;;;;;;;0.23;0.23;;;14.30;99.90;;;;;;4969216;28;20219;-79
2021/09/13 03:33:38;;;;;;;0.30;0.30;;;14.40;99.90;;;;;;4965052;28;20190;-79
2021/09/13 03:36:07;;;;;;;0.20;0.20;;;14.40;99.90;;;;;;4967444;28;20248;-79
2021/09/13 03:38:33;;;;;;;0.20;0.20;;;14.40;99.90;;;;;;4971161;28;20683;-79
2021/09/13 03:40:59;;;;;;;0.30;0.30;;;14.40;99.90;;;;;;4959689;28;20192;-79
2021/09/13 03:43:24;;;;;;;0.30;0.30;;;14.50;99.90;;;;;;4967120;28;20211;-79
2021/09/13 03:45:50;;;;;;;0.30;0.30;;;14.50;99.90;;;;;;4963130;28;20540;-79
2021/09/13 03:48:16;;;;;;;0.20;0.20;;;14.60;99.90;;;;;;4970661;28;20238;-79
2021/09/13 03:50:42;;;;;;;0.40;0.40;;;14.60;99.90;;;;;;4968106;28;20218;-79
2021/09/13 03:53:08;;;;;;;0.10;0.10;;;14.60;99.90;;;;;;4969041;28;20212;-79
2021/09/13 03:55:35;;;;;;;1.63;0.20;;;14.60;99.90;;;;;;4968223;28;20254;-79
2021/09/13 03:58:02;;;;;;;0.30;0.20;;;14.60;99.90;;;;;;4967445;28;20187;-79
2021/09/13 04:00:28;;;;;;;0.30;0.30;;;14.50;99.90;;;;;;4969278;28;20582;-79
2021/09/13 04:02:53;;;;;;;0.77;0.30;;;14.60;99.90;;;;;;4968594;28;20189;-79
2021/09/13 04:05:21;;;;;;;0.57;0.47;;;14.50;99.90;;;;;;4963611;28;20181;-79
2021/09/13 04:10:26;;;;;;;0.37;0.37;;;14.50;99.90;;;;;;4968091;28;20244;-79
2021/09/13 04:12:52;;;;;;;0.30;0.30;;;14.50;99.90;;;;;;4964337;28;20619;-79
2021/09/13 04:15:17;;;;;;;0.27;0.27;;;14.50;99.90;;;;;;4966376;28;20267;-79
2021/09/13 04:17:43;;;;;;;0.30;0.30;;;14.50;99.90;;;;;;4968294;28;20190;-79
2021/09/13 04:20:09;;;;;;;0.40;0.40;;;14.50;99.90;;;;;;4966759;28;20633;-79
2021/09/13 04:22:34;;;;;;;0.03;0.03;;;14.40;99.90;;;;;;4970672;28;20194;-79
2021/09/13 04:25:00;;;;;;;0.20;0.20;;;14.40;99.90;;;;;;4967158;28;20185;-79
2021/09/13 04:27:27;;;;;;;0.10;0.10;;;14.40;99.90;;;;;;4970678;28;20202;-79
2021/09/13 04:29:53;;;;;;;0.10;0.10;;;14.30;99.90;;;;;;4965103;28;20662;-79
2021/09/13 04:32:19;;;;;;;0.40;0.40;;;14.30;99.90;;;;;;4973530;28;20205;-79
2021/09/13 04:34:46;;;;;;;0.10;0.10;;;14.20;99.90;;;;;;4972680;28;20666;-79
2021/09/13 04:37:11;;;;;;;0.40;0.40;;;14.30;99.90;;;;;;4973448;28;20212;-79
2021/09/13 04:39:37;;;;;;;0.37;0.30;;;14.30;99.90;;;;;;4974570;28;20301;-79
2021/09/13 04:42:03;;;;;;;0.10;0.10;;;14.30;99.90;;;;;;4974198;28;20259;-79
2021/09/13 04:44:28;;;;;;;0.20;0.20;;;14.20;99.90;;;;;;4965788;28;20240;-79
2021/09/13 04:46:54;;;;;;;0.30;0.30;;;14.30;99.90;;;;;;4974700;28;20581;-79
2021/09/13 04:49:21;;;;;;;0.30;0.30;;;14.30;99.90;;;;;;4976374;28;20702;-80
2021/09/13 04:51:47;;;;;;;0.10;0.10;;;14.30;99.90;;;;;;4967548;28;20190;-80
2021/09/13 04:54:12;;;;;;;0.37;0.37;;;14.40;99.90;;;;;;4975747;28;20233;-79
2021/09/13 04:56:38;;;;;;;0.50;0.50;;;14.40;99.90;;;;;;4973519;28;20269;-79
2021/09/13 04:59:03;;;;;;;1.27;0.40;;;14.50;99.90;;;;;;4969311;28;20213;-79
2021/09/13 05:01:29;;;;;;;0.17;0.17;;;14.50;99.90;;;;;;4967098;28;20199;-79
2021/09/13 05:03:55;;;;;;;0.10;0.10;;;14.50;99.90;;;;;;4962664;28;20217;-79
2021/09/13 05:06:20;;;;;;;0.40;0.40;;;14.50;99.90;;;;;;4967300;28;20184;-79
2021/09/13 05:08:46;;;;;;;0.27;0.27;;;14.50;99.90;;;;;;4968725;28;20606;-79
2021/09/13 05:11:11;;;;;;;0.10;0.10;;;14.60;99.90;;;;;;4973225;28;20284;-80
2021/09/13 05:13:37;;;;;;;0.20;0.20;;;14.40;99.90;;;;;;4971402;28;20200;-80
2021/09/13 05:16:03;;;;;;;0.20;0.20;;;14.40;99.90;;;;;;4975083;28;20196;-82
2021/09/13 05:18:28;;;;;;;0.20;0.20;;;14.50;99.90;;;;;;4974504;28;20201;-82
2021/09/13 05:20:54;;;;;;;0.60;0.57;;;14.50;99.90;;;;;;4974754;28;20205;-82
2021/09/13 05:23:20;;;;;;;0.53;0.43;;;14.60;99.90;;;;;;4973509;28;20198;-80
2021/09/13 05:25:46;;;;;;;0.17;0.17;;;14.60;99.90;;;;;;4970420;28;20193;-81
2021/09/13 05:28:11;;;;;;;0.17;0.17;;;14.70;99.90;;;;;;4973123;28;20263;-81
2021/09/13 05:30:37;;;;;;;0.70;0.30;;;14.70;99.90;;;;;;4970299;28;20210;-80
2021/09/13 05:33:03;;;;;;;0.87;0.30;;;14.80;99.90;;;;;;4967135;28;20625;-81
2021/09/13 05:35:28;;;;;;;0.30;0.30;;;14.80;99.90;;;;;;4970538;28;20655;-80
2021/09/13 05:37:54;;;;;;;0.20;0.20;;;14.90;99.90;;;;;;4971115;28;20191;-81
2021/09/13 05:40:20;;;;;;;0.23;0.23;;;15.00;99.90;;;;;;4967735;28;20212;-80
2021/09/13 05:42:45;;;;;;;0.63;0.60;;;15.00;99.90;;;;;;4967882;28;20665;-80
2021/09/13 05:45:11;;;;;;;0.17;0.17;;;15.10;99.90;;;;;;4965192;28;20689;-81
2021/09/13 05:47:36;;;;;;;0.20;0.20;;;15.10;99.90;;;;;;4973426;28;21492;-81
2021/09/13 05:50:02;;;;;;;1.07;0.60;;;15.20;99.90;;;;;;4962674;28;20224;-81
2021/09/13 05:52:28;;;;;;;0.27;0.27;;;15.10;99.90;;;;;;4970217;28;20236;-81
2021/09/13 05:54:54;;;;;;;0.63;0.40;;;15.10;99.90;;;;;;4971493;28;20189;-81
2021/09/13 05:57:19;;;;;;;0.80;0.33;;;15.20;99.90;;;;;;4971903;28;20197;-80
2021/09/13 05:59:45;;;;;;;0.50;0.37;;;15.30;99.90;;;;;;4976662;28;20210;-80
2021/09/13 06:02:11;;;;;;;1.00;0.30;;;15.40;99.90;;;;;;4972596;28;20198;-80
2021/09/13 06:04:37;;;;;;;0.20;0.20;;;15.50;99.90;;;;;;4968572;28;20195;-81
2021/09/13 06:07:06;;;;;;;0.20;0.20;;;15.70;99.90;;;;;;4974306;28;20210;-80
2021/09/13 06:09:32;;;;;;;0.30;0.30;;;15.60;99.90;;;;;;4969071;28;20201;-80
2021/09/13 06:11:58;;;;;;;0.47;0.47;;;15.60;99.90;;;;;;4970903;28;20237;-81
2021/09/13 06:14:24;;;;;;;0.83;0.80;;;15.50;99.90;;;;;;4968469;28;20198;-81
2021/09/13 06:16:49;;;;;;;0.40;0.40;;;15.50;99.90;;;;;;4974787;28;20191;-81
2021/09/13 06:19:15;;;;;;;0.47;0.47;;;15.50;99.90;;;;;;4975500;28;20594;-80
2021/09/13 06:21:40;;;;;;;0.43;0.43;;;15.60;99.90;;;;;;4966724;28;20228;-80
2021/09/13 06:24:06;;;;;;;0.20;0.20;;;15.70;99.90;;;;;;4973506;28;20200;-81
2021/09/13 06:26:31;;;;;;;0.50;0.47;;;15.80;99.90;;;;;;4973211;28;20313;-81
2021/09/13 06:28:57;;;;;;;0.10;0.10;;;15.90;99.90;;;;;;4968497;28;20609;-80
2021/09/13 06:31:23;;;;;;;1.80;1.27;;;16.10;99.90;;;;;;4965891;28;20220;-80
2021/09/13 06:33:48;;;;;;;0.80;0.60;;;16.20;99.90;;;;;;4969761;28;20190;-80
2021/09/13 06:36:14;;;;;;;0.40;0.40;;;16.30;99.90;;;;;;4975448;28;20273;-80
2021/09/13 06:38:40;;;;;;;0.83;0.20;;;16.40;99.90;;;;;;4975347;28;20686;-80
2021/09/13 06:41:06;;;;;;;0.70;0.70;;;16.50;99.90;;;;;;4969423;28;20187;-81
2021/09/13 06:43:32;;;;;;;0.20;0.20;;;16.60;99.90;;;;;;4964772;28;20184;-81
2021/09/13 06:46:12;;;;;;;0.43;0.37;;;16.80;99.90;;;;;;4962616;28;20191;-81
2021/09/13 06:48:40;;;;;;;0.37;0.37;;;17.00;99.90;;;;;;4969258;28;20218;-81
2021/09/13 06:51:06;;;;;;;0.73;0.57;;;17.20;99.90;;;;;;4969109;28;20198;-81
2021/09/13 06:53:32;;;;;;;0.30;0.30;;;17.30;99.90;;;;;;4974283;28;20279;-81
2021/09/13 06:55:57;;;;;;;0.40;0.40;;;17.20;99.90;;;;;;4974022;28;20183;-81
2021/09/13 06:58:23;;;;;;;0.47;0.40;;;17.40;99.90;;;;;;4973249;28;20708;-82
2021/09/13 07:00:49;;;;;;;0.20;0.20;;;17.50;99.90;;;;;;4970664;28;20298;-81
2021/09/13 07:03:16;;;;;;;0.40;0.40;;;17.60;99.90;;;;;;4970502;28;20904;-85
2021/09/13 07:05:42;;;;;;;0.60;0.60;;;17.60;99.90;;;;;;4971013;28;20270;-82
2021/09/13 07:08:07;;;;;;;0.70;0.43;;;17.60;99.90;;;;;;4965561;28;20219;-82
2021/09/13 07:10:33;;;;;;;0.73;0.40;;;17.70;99.90;;;;;;4970786;28;20207;-83
2021/09/13 07:12:59;;;;;;;0.43;0.40;;;17.80;99.90;;;;;;4968105;28;20318;-83
2021/09/13 07:15:24;;;;;;;0.33;0.33;;;18.00;99.90;;;;;;4972062;28;20222;-83
2021/09/13 07:17:50;;;;;;;0.37;0.37;;;18.10;99.90;;;;;;4973527;28;20208;-82
2021/09/13 07:20:16;;;;;;;0.40;0.40;;;18.20;99.90;;;;;;4971587;28;20291;-83
2021/09/13 07:22:43;;;;;;;0.30;0.30;;;18.20;99.90;;;;;;4960998;28;20185;-83
2021/09/13 07:25:09;;;;;;;0.30;0.30;;;18.30;99.90;;;;;;4966894;28;20188;-83
2021/09/13 07:27:35;;;;;;;0.30;0.30;;;18.40;99.90;;;;;;4971223;28;20679;-83
2021/09/13 07:30:02;;;;;;;0.37;0.37;;;18.40;99.90;;;;;;4963879;28;20279;-83
2021/09/13 07:32:28;;;;;;;0.33;0.30;;;18.50;99.90;;;;;;4972338;28;20231;-83
2021/09/13 07:34:54;;;;;;;0.20;0.20;;;18.70;99.90;;;;;;4963072;28;20204;-83
2021/09/13 07:37:20;;;;;;;0.30;0.30;;;18.90;99.90;;;;;;4972876;28;20191;-82
2021/09/13 07:39:45;;;;;;;0.30;0.30;;;19.00;99.90;;;;;;4971200;28;20208;-81
2021/09/13 07:42:11;;;;;;;0.40;0.40;;;19.20;99.90;;;;;;4966359;28;22103;-81
2021/09/13 07:44:37;;;;;;;0.30;0.30;;;19.40;99.90;;;;;;4969689;28;20188;-81
2021/09/13 07:47:03;;;;;;;0.47;0.47;;;19.60;99.90;;;;;;4972981;28;20269;-81
2021/09/13 07:49:28;;;;;;;0.63;0.43;;;19.80;99.90;;;;;;4973118;28;20230;-81
2021/09/13 07:51:54;;;;;;;0.40;0.40;;;19.90;99.90;;;;;;4974876;28;20192;-81
2021/09/13 07:54:19;;;;;;;0.40;0.40;;;19.20;99.90;;;;;;4965895;28;20193;-81
2021/09/13 07:56:45;;;;;;;4.57;0.93;;;19.30;99.90;;;;;;4968777;28;20272;-81
2021/09/13 07:59:11;;;;;;;0.37;0.37;;;19.00;99.90;;;;;;4973892;28;20347;-81
2021/09/13 08:01:37;;;;;;;0.80;0.70;;;19.50;99.90;;;;;;4977215;28;20212;-81
2021/09/13 08:04:03;;;;;;;0.83;0.50;;;19.40;99.90;;;;;;4977639;28;20195;-81
2021/09/13 08:06:28;;;;;;;1.07;0.43;;;19.90;99.90;;;;;;4968711;28;20192;-81
2021/09/13 08:08:54;;;;;;;0.70;0.70;;;20.10;99.90;;;;;;4974683;28;20682;-81
2021/09/13 08:11:19;;;;;;;0.90;0.80;;;20.40;99.90;;;;;;4977242;28;20275;-81
2021/09/13 08:13:45;;;;;;;0.33;0.33;;;19.90;99.90;;;;;;4977368;28;20187;-81
2021/09/13 08:16:12;;;;;;;0.30;0.30;;;20.00;99.90;;;;;;4974906;28;20181;-81
2021/09/13 08:18:38;;;;;;;0.40;0.40;;;20.50;99.90;;;;;;4978698;28;20199;-81
2021/09/13 08:21:05;;;;;;;0.57;0.47;;;20.90;99.90;;;;;;4973113;28;20193;-81
2021/09/13 08:23:33;;;;;;;0.70;0.70;;;20.80;99.90;;;;;;4962673;28;20189;-80
2021/09/13 08:26:04;;;;;;;0.50;0.50;;;21.10;99.90;;;;;;4972318;28;20235;-81
2021/09/13 08:28:30;;;;;;;0.90;0.53;;;21.40;99.90;;;;;;4976636;28;20266;-81
2021/09/13 08:30:56;;;;;;;0.30;0.30;;;21.40;99.90;;;;;;4977218;28;20291;-81
2021/09/13 08:33:22;;;;;;;0.57;0.57;;;21.50;99.90;;;;;;4968647;28;20184;-81
2021/09/13 08:35:49;;;;;;;0.50;0.50;;;21.50;99.90;;;;;;4977195;28;20187;-81
2021/09/13 08:38:14;;;;;;;0.63;0.50;;;20.50;99.90;;;;;;4971812;28;20193;-81
2021/09/13 08:40:40;;;;;;;1.10;0.50;;;20.50;99.90;;;;;;4965073;28;20216;-81
2021/09/13 08:43:06;;;;;;;0.63;0.60;;;20.50;99.90;;;;;;4978065;28;20215;-81
2021/09/13 08:48:14;;;;;;;0.77;0.63;;;20.50;99.90;;;;;;4971389;28;20215;-80
2021/09/13 08:51:03;;;;;;;7.60;1.50;;;20.30;99.90;;;;;;4973046;28;20220;-80
2021/09/13 08:53:30;;;;;;;0.40;0.40;;;20.20;99.90;;;;;;4977932;28;20189;-81
2021/09/13 08:55:57;;;;;;;0.80;0.80;;;20.20;99.90;;;;;;4966343;28;20177;-81
2021/09/13 08:58:23;;;;;;;0.57;0.53;;;20.90;99.90;;;;;;4969080;28;20231;-80
2021/09/13 09:00:50;;;;;;;0.20;0.20;;;21.40;99.90;;;;;;4976655;28;20225;-81
2021/09/13 09:03:17;;;;;;;0.33;0.33;;;21.60;99.90;;;;;;4970321;28;20241;-81
2021/09/13 09:05:48;;;;;;;0.40;0.40;;;21.70;99.90;;;;;;4975361;28;20211;-81
2021/09/13 09:08:26;;;;;;;0.30;0.30;;;22.10;99.90;;;;;;4975673;28;20212;-81
2021/09/13 09:10:54;;;;;;;0.40;0.37;;;22.50;99.90;;;;;;4971841;28;20200;-81
2021/09/13 09:13:20;;;;;;;0.30;0.30;;;22.50;99.90;;;;;;4961004;28;20355;-81
2021/09/13 09:15:59;;;;;;;0.30;0.30;;;22.50;99.90;;;;;;4972387;28;20262;-81
2021/09/13 09:18:39;;;;;;;1.00;0.50;;;22.60;99.90;;;;;;4963693;28;20193;-81
2021/09/13 09:21:07;;;;;;;0.63;0.63;;;22.50;99.90;;;;;;4966058;28;20193;-81
2021/09/13 09:23:52;;;;;;;0.90;0.90;;;22.40;99.90;;;;;;4976407;28;20709;-81
2021/09/13 09:26:17;;;;;;;0.80;0.77;;;22.40;99.90;;;;;;4968255;28;20275;-81
2021/09/13 09:28:43;;;;;;;0.60;0.60;;;22.20;99.90;;;;;;4961981;28;20698;-81
2021/09/13 09:31:08;;;;;;;0.50;0.50;;;22.20;99.90;;;;;;4972782;28;20255;-81
2021/09/13 09:33:35;;;;;;;0.30;0.30;;;22.50;99.90;;;;;;4976542;28;20188;-81
2021/09/13 09:36:01;;;;;;;0.77;0.77;;;23.00;99.90;;;;;;4975478;28;20195;-81
2021/09/13 09:38:39;;;;;;;0.80;0.80;;;22.90;99.90;;;;;;4972062;28;20192;-81
2021/09/13 09:41:16;;;;;;;1.00;1.00;;;23.30;99.90;;;;;;4972459;28;20203;-81
2021/09/13 09:44:00;;;;;;;1.83;1.13;;;23.40;99.90;;;;;;4968285;28;20189;-81
2021/09/13 09:46:43;;;;;;;1.13;0.70;;;22.90;99.90;;;;;;4972816;28;20180;-80
2021/09/13 09:49:15;;;;;;;0.30;0.30;;;23.00;99.90;;;;;;4972332;28;20247;-81
2021/09/13 09:51:49;;;;;;;0.43;0.43;;;23.40;99.90;;;;;;4975264;28;20188;-81
2021/09/13 09:54:16;;;;;;;1.07;0.67;;;23.70;99.90;;;;;;4975913;28;20206;-80
2021/09/13 09:56:44;;;;;;;2.53;0.60;;;23.60;99.90;;;;;;4974531;28;20176;-81
2021/09/13 09:59:12;;;;;;;0.30;0.30;;;23.70;99.90;;;;;;4972346;28;20204;-80
2021/09/13 10:01:47;;;;;;;0.37;0.37;;;24.00;99.90;;;;;;4963164;28;20188;-81
2021/09/13 10:04:13;;;;;;;0.53;0.53;;;24.30;99.90;;;;;;4969732;28;20184;-80
2021/09/13 10:06:40;;;;;;;0.60;0.60;;;23.80;99.90;;;;;;4965675;28;20613;-81
2021/09/13 10:09:06;;;;;;;0.73;0.53;;;23.70;99.90;;;;;;4968680;28;20220;-80
2021/09/13 10:11:32;;;;;;;0.23;0.23;;;24.00;99.90;;;;;;4975197;28;20697;-81
2021/09/13 10:13:58;;;;;;;0.40;0.40;;;24.10;99.90;;;;;;4971456;28;20199;-82
2021/09/13 10:16:24;;;;;;;0.60;0.60;;;24.40;99.90;;;;;;4975194;28;20195;-81
2021/09/13 10:18:49;;;;;;;0.30;0.30;;;24.70;99.90;;;;;;4974257;28;20241;-81
2021/09/13 10:21:16;;;;;;;0.30;0.30;;;25.00;99.90;;;;;;4967268;28;20644;-81
2021/09/13 10:23:44;;;;;;;0.53;0.47;;;24.70;99.90;;;;;;4967911;28;20184;-81
2021/09/13 10:26:09;;;;;;;0.40;0.40;;;24.90;99.90;;;;;;4973273;28;20188;-81
2021/09/13 10:29:01;;;;;;;0.93;0.93;;;23.90;99.90;;;;;;4974699;28;20200;-81
2021/09/13 10:31:52;;;;;;;0.50;0.40;;;24.30;99.90;;;;;;4967477;28;20184;-81
2021/09/13 10:34:32;;;;;;;0.30;0.30;;;24.70;99.90;;;;;;4970664;28;20184;-81
2021/09/13 10:37:05;;;;;;;3.63;0.60;;;24.90;99.90;;;;;;4972151;28;20703;-81
2021/09/13 10:39:46;;;;;;;0.50;0.50;;;25.30;99.90;;;;;;4964752;28;20547;-82
2021/09/13 10:42:29;;;;;;;0.63;0.63;;;24.20;99.90;;;;;;4972360;28;20181;-81
2021/09/13 10:45:14;;;;;;;0.87;0.50;;;24.40;99.90;;;;;;4968349;28;20192;-81
2021/09/13 10:48:04;;;;;;;2.17;0.90;;;23.80;99.90;;;;;;4969274;28;20208;-82
2021/09/13 10:50:41;;;;;;;0.43;0.43;;;23.30;99.90;;;;;;4964750;28;20573;-82
2021/09/13 10:53:19;;;;;;;0.30;0.30;;;23.90;99.90;;;;;;4970397;28;20655;-81
2021/09/13 10:55:45;;;;;;;0.70;0.70;;;24.30;99.90;;;;;;4976357;28;21774;-82
2021/09/13 10:58:12;;;;;;;1.13;0.63;;;24.20;99.90;;;;;;4971859;28;20227;-82
2021/09/13 11:00:40;;;;;;;0.23;0.20;;;24.60;99.90;;;;;;4975205;28;20287;-82
2021/09/13 11:06:04;;;;;;;0.87;0.63;;;24.80;99.90;;;;;;4969678;28;20188;-82
2021/09/13 11:08:31;;;;;;;0.40;0.40;;;25.00;99.90;;;;;;4972435;28;20936;-82
2021/09/13 11:10:57;;;;;;;0.40;0.40;;;25.20;99.90;;;;;;4969461;28;20228;-82
2021/09/13 11:13:23;;;;;;;0.30;0.30;;;25.50;99.90;;;;;;4974342;28;20191;-82
2021/09/13 11:15:49;;;;;;;0.60;0.60;;;26.00;99.90;;;;;;4972663;28;20177;-82
2021/09/13 11:18:35;;;;;;;1.30;1.20;;;24.60;99.90;;;;;;4972108;28;20268;-83
2021/09/13 11:21:18;;;;;;;0.23;0.23;;;24.00;99.90;;;;;;4968229;28;20200;-82
2021/09/13 11:24:04;;;;;;;1.10;1.10;;;23.90;99.90;;;;;;4968683;28;20587;-82
2021/09/13 11:26:58;;;;;;;0.30;0.30;;;24.10;99.90;;;;;;4970248;28;20200;-82
2021/09/13 11:29:24;;;;;;;0.40;0.40;;;24.50;99.90;;;;;;4967682;28;20208;-82
2021/09/13 11:31:59;;;;;;;0.50;0.50;;;24.80;99.90;;;;;;4966714;28;20607;-82
2021/09/13 11:34:37;;;;;;;0.40;0.40;;;24.70;99.90;;;;;;4970400;28;20275;-81
2021/09/13 11:37:13;;;;;;;0.33;0.33;;;23.90;99.90;;;;;;4968530;28;20183;-81
2021/09/13 11:39:43;;;;;;;0.50;0.50;;;24.30;99.90;;;;;;4971937;28;20192;-82
2021/09/13 11:42:11;;;;;;;0.83;0.40;;;24.30;99.90;;;;;;4969334;28;20181;-81
2021/09/13 11:44:45;;;;;;;0.67;0.67;;;24.80;99.90;;;;;;4973113;28;20267;-81
2021/09/13 11:47:14;;;;;;;0.90;0.67;;;24.80;99.90;;;;;;4972408;28;20884;-81
2021/09/13 11:49:45;;;;;;;0.40;0.40;;;24.80;99.90;;;;;;4963074;28;20591;-82
2021/09/13 11:52:10;;;;;;;0.50;0.50;;;25.40;99.90;;;;;;4961918;28;20534;-81
2021/09/13 11:55:04;;;;;;;0.60;0.60;;;24.70;99.90;;;;;;4972399;28;20267;-81
2021/09/13 11:57:38;;;;;;;2.53;1.37;;;24.70;99.90;;;;;;4965935;28;20196;-81
2021/09/13 12:00:13;;;;;;;2.10;1.33;;;24.90;99.90;;;;;;4979869;28;20304;-81
2021/09/13 12:02:46;;;;;;;0.47;0.47;;;25.60;99.90;;;;;;4969170;28;20221;-81
2021/09/13 12:05:19;;;;;;;0.50;0.50;;;26.30;99.90;;;;;;4970026;28;20208;-80
2021/09/13 12:07:47;;;;;;;0.43;0.43;;;26.60;99.90;;;;;;4972883;28;20216;-81
2021/09/13 12:10:18;;;;;;;0.67;0.40;;;26.70;99.90;;;;;;4971951;28;20207;-82
2021/09/13 12:12:46;;;;;;;1.03;0.97;;;25.70;99.90;;;;;;4958687;28;20185;-81
2021/09/13 12:15:14;;;;;;;2.23;0.60;;;25.20;99.90;;;;;;4975266;28;20177;-81
2021/09/13 12:18:02;;;;;;;0.50;0.50;;;25.20;99.90;;;;;;4973396;28;20212;-81
2021/09/13 12:20:46;;;;;;;0.60;0.60;;;24.60;99.90;;;;;;4969940;28;20693;-81
2021/09/13 12:23:19;;;;;;;0.53;0.53;;;25.00;99.90;;;;;;4974097;28;20196;-81
2021/09/13 12:26:02;;;;;;;0.17;0.17;;;24.50;99.90;;;;;;4966554;28;20569;-81
2021/09/13 12:28:30;;;;;;;0.40;0.40;;;25.30;99.90;;;;;;4972346;28;20204;-82
2021/09/13 12:31:02;;;;;;;0.47;0.30;;;24.80;99.90;;;;;;4969444;28;20192;-82
2021/09/13 12:33:41;;;;;;;0.23;0.23;;;24.70;99.90;;;;;;4970517;28;20202;-82
2021/09/13 12:36:14;;;;;;;0.70;0.70;;;25.40;99.90;;;;;;4969282;28;20191;-82
2021/09/13 12:38:42;;;;;;;0.53;0.53;;;24.90;99.90;;;;;;4971787;28;20181;-82
2021/09/13 12:41:08;;;;;;;0.40;0.37;;;24.70;99.90;;;;;;4973038;28;20188;-81
2021/09/13 12:43:36;;;;;;;2.00;0.87;;;25.70;99.90;;;;;;4973947;28;20709;-82
2021/09/13 12:46:11;;;;;;;2.00;0.50;;;26.20;99.90;;;;;;4973066;28;20220;-82
2021/09/13 12:48:46;;;;;;;0.50;0.40;;;26.00;99.90;;;;;;4972792;28;20204;-82
2021/09/13 12:51:19;;;;;;;0.50;0.50;;;25.60;99.90;;;;;;4978019;28;20234;-82
2021/09/13 12:54:00;;;;;;;2.83;0.50;;;25.60;99.90;;;;;;4975263;28;20188;-82
2021/09/13 12:56:31;;;;;;;0.77;0.60;;;25.30;99.90;;;;;;4976432;28;20180;-82
2021/09/13 12:59:20;;;;;;;0.67;0.63;;;25.20;99.90;;;;;;4970820;28;20208;-82
2021/09/13 13:01:47;;;;;;;0.23;0.23;;;24.90;99.90;;;;;;4975809;28;20189;-82